createdAt,value
2022-09-07T00:01:33.912Z,21.30
2022-09-07T00:04:01.561Z,21.15
2022-09-07T00:06:30.915Z,21.23
2022-09-07T00:08:57.548Z,20.97
2022-09-07T00:11:24.173Z,21.08
2022-09-07T00:13:51.845Z,21.21
2022-09-07T00:16:21.059Z,21.11
2022-09-07T00:18:50.947Z,20.69
2022-09-07T00:21:21.460Z,20.58
2022-09-07T00:23:48.775Z,20.49
2022-09-07T00:26:18.258Z,20.58
2022-09-07T00:28:47.016Z,20.18
2022-09-07T00:31:19.122Z,20.41
2022-09-07T00:33:48.010Z,20.51
2022-09-07T00:36:15.352Z,20.21
2022-09-07T00:38:42.589Z,20.29
2022-09-07T00:41:10.728Z,20.54
2022-09-07T00:43:38.615Z,20.56
2022-09-07T00:46:06.134Z,20.37
2022-09-07T00:48:38.588Z,20.32
2022-09-07T00:51:09.455Z,20.37
2022-09-07T00:53:42.266Z,20.37
2022-09-07T00:56:09.697Z,20.36
2022-09-07T00:58:39.295Z,20.29
2022-09-07T01:01:13.109Z,20.30
2022-09-07T01:03:42.143Z,20.36
2022-09-07T01:06:13.195Z,20.41
2022-09-07T01:08:40.266Z,20.35
2022-09-07T01:11:09.462Z,20.40
2022-09-07T01:13:36.213Z,20.29
2022-09-07T01:16:09.811Z,20.23
2022-09-07T01:18:45.752Z,20.26
2022-09-07T01:21:30.435Z,20.17
2022-09-07T01:24:20.622Z,20.18
2022-09-07T01:27:08.538Z,20.13
2022-09-07T01:29:40.673Z,19.93
2022-09-07T01:32:12.022Z,19.80
2022-09-07T01:34:38.653Z,19.89
2022-09-07T01:37:07.680Z,19.78
2022-09-07T01:39:40.055Z,19.87
2022-09-07T01:42:12.416Z,19.92
2022-09-07T01:44:46.679Z,19.81
2022-09-07T01:47:21.882Z,19.58
2022-09-07T01:49:50.298Z,19.80
2022-09-07T01:52:28.312Z,19.70
2022-09-07T01:54:58.992Z,19.68
2022-09-07T01:57:32.136Z,19.73
2022-09-07T02:00:04.044Z,19.60
2022-09-07T02:02:35.173Z,19.63
2022-09-07T02:05:04.742Z,19.50
2022-09-07T02:07:36.652Z,19.51
2022-09-07T02:10:06.652Z,19.64
2022-09-07T02:12:35.628Z,19.76
2022-09-07T02:15:05.351Z,19.59
2022-09-07T02:17:33.405Z,19.53
2022-09-07T02:20:02.870Z,19.37
2022-09-07T02:22:31.834Z,19.29
2022-09-07T02:25:04.111Z,19.30
2022-09-07T02:27:35.933Z,19.18
2022-09-07T02:30:04.333Z,19.23
2022-09-07T02:32:34.572Z,19.52
2022-09-07T02:35:05.319Z,19.40
2022-09-07T02:37:37.146Z,19.40
2022-09-07T02:40:04.250Z,19.36
2022-09-07T02:42:32.798Z,19.40
2022-09-07T02:45:02.253Z,19.12
2022-09-07T02:47:36.672Z,18.77
2022-09-07T02:50:10.897Z,19.21
2022-09-07T02:52:46.031Z,19.24
2022-09-07T02:55:20.565Z,19.31
2022-09-07T02:57:50.741Z,19.27
2022-09-07T03:00:18.067Z,18.90
2022-09-07T03:02:51.985Z,18.79
2022-09-07T03:05:20.684Z,18.64
2022-09-07T03:07:51.433Z,18.52
2022-09-07T03:10:18.096Z,18.46
2022-09-07T03:12:45.423Z,18.47
2022-09-07T03:15:14.728Z,18.83
2022-09-07T03:17:41.327Z,19.11
2022-09-07T03:20:09.863Z,19.12
2022-09-07T03:22:36.346Z,19.03
2022-09-07T03:25:03.494Z,18.63
2022-09-07T03:27:30.027Z,18.61
2022-09-07T03:29:56.510Z,18.50
2022-09-07T03:32:29.634Z,18.36
2022-09-07T03:34:56.050Z,18.32
2022-09-07T03:37:24.053Z,18.25
2022-09-07T03:39:50.488Z,18.02
2022-09-07T03:42:16.966Z,18.06
2022-09-07T03:44:43.435Z,18.10
2022-09-07T03:47:09.871Z,18.23
2022-09-07T03:49:38.960Z,18.11
2022-09-07T03:52:05.609Z,18.19
2022-09-07T03:54:35.796Z,18.26
2022-09-07T03:57:05.965Z,18.40
2022-09-07T03:59:33.994Z,18.28
2022-09-07T04:02:03.086Z,18.48
2022-09-07T04:04:32.373Z,18.56
2022-09-07T04:07:00.934Z,18.47
2022-09-07T04:09:29.755Z,18.30
2022-09-07T04:11:57.917Z,18.27
2022-09-07T04:14:27.514Z,18.19
2022-09-07T04:16:54.156Z,18.27
2022-09-07T04:19:21.066Z,18.34
2022-09-07T04:21:48.032Z,18.39
2022-09-07T04:24:18.037Z,18.35
2022-09-07T04:26:45.712Z,17.96
2022-09-07T04:29:15.184Z,18.14
2022-09-07T04:31:44.479Z,17.95
2022-09-07T04:34:14.415Z,18.27
2022-09-07T04:36:44.060Z,18.37
2022-09-07T04:39:11.073Z,18.32
2022-09-07T04:41:37.524Z,18.41
2022-09-07T04:44:04.360Z,18.23
2022-09-07T04:46:34.039Z,18.34
2022-09-07T04:49:01.169Z,18.39
2022-09-07T04:51:28.503Z,18.51
2022-09-07T04:53:55.484Z,18.49
2022-09-07T04:56:22.220Z,18.54
2022-09-07T04:58:49.426Z,18.67
2022-09-07T05:01:17.161Z,18.65
2022-09-07T05:03:45.519Z,18.67
2022-09-07T05:06:12.137Z,18.72
2022-09-07T05:08:38.766Z,18.65
2022-09-07T05:11:05.369Z,18.82
2022-09-07T05:13:37.810Z,18.97
2022-09-07T05:16:07.707Z,19.08
2022-09-07T05:18:36.685Z,18.89
2022-09-07T05:21:13.407Z,18.80
2022-09-07T05:23:40.690Z,19.06
2022-09-07T05:26:07.783Z,19.24
2022-09-07T05:28:35.710Z,19.22
2022-09-07T05:31:22.218Z,19.21
2022-09-07T05:36:37.459Z,19.33
2022-09-07T05:39:05.104Z,19.36
2022-09-07T05:41:31.616Z,19.34
2022-09-07T05:46:44.651Z,19.40
2022-09-07T05:49:11.162Z,19.44
2022-09-07T05:51:39.277Z,19.43
2022-09-07T05:54:23.959Z,19.58
2022-09-07T05:56:57.568Z,19.47
2022-09-07T05:59:24.138Z,19.45
2022-09-07T06:01:50.649Z,19.71
2022-09-07T06:04:17.513Z,19.84
2022-09-07T06:12:34.258Z,19.95
2022-09-07T06:15:00.794Z,20.28
2022-09-07T06:17:27.287Z,20.37
2022-09-07T06:19:53.748Z,20.33
2022-09-07T06:22:21.887Z,20.27
2022-09-07T06:25:18.408Z,20.42
2022-09-07T06:27:53.503Z,20.58
2022-09-07T06:51:18.297Z,21.68
2022-09-07T06:53:45.704Z,21.62
2022-09-07T06:56:12.961Z,21.87
2022-09-07T06:58:42.495Z,22.05
2022-09-07T07:01:12.333Z,22.16
2022-09-07T07:03:39.010Z,22.07
2022-09-07T07:06:05.858Z,21.94
2022-09-07T07:08:32.891Z,22.16
2022-09-07T07:11:01.190Z,22.27
2022-09-07T07:13:27.864Z,22.38
2022-09-07T07:16:02.471Z,22.41
2022-09-07T07:18:31.146Z,22.21
2022-09-07T07:20:57.680Z,22.28
2022-09-07T07:23:24.347Z,22.07
2022-09-07T07:25:50.834Z,22.05
2022-09-07T07:31:09.480Z,22.12
2022-09-07T07:33:39.004Z,22.02
2022-09-07T07:36:12.639Z,22.11
2022-09-07T07:44:14.434Z,22.38
2022-09-07T07:46:49.429Z,22.37
2022-09-07T07:49:18.923Z,22.29
2022-09-07T07:54:32.893Z,22.60
2022-09-07T07:56:59.391Z,22.77
2022-09-07T07:59:25.802Z,22.85
2022-09-07T08:01:54.788Z,23.00
2022-09-07T08:04:21.288Z,23.02
2022-09-07T08:06:47.708Z,23.09
2022-09-07T08:09:14.294Z,23.19
2022-09-07T08:11:43.620Z,23.29
2022-09-07T08:14:10.209Z,23.25
2022-09-07T08:16:36.940Z,23.32
2022-09-07T08:19:04.783Z,23.39
2022-09-07T08:21:31.253Z,23.49
2022-09-07T08:23:59.713Z,23.56
2022-09-07T08:26:26.145Z,23.45
2022-09-07T08:28:52.576Z,23.58
2022-09-07T08:31:28.126Z,23.65
2022-09-07T08:33:54.626Z,23.71
2022-09-07T08:36:22.493Z,23.76
2022-09-07T08:38:52.029Z,23.83
2022-09-07T08:41:54.544Z,23.92
2022-09-07T08:44:28.024Z,24.11
2022-09-07T08:47:00.560Z,24.09
2022-09-07T08:49:36.071Z,24.20
2022-09-07T08:52:14.428Z,23.92
2022-09-07T08:55:37.859Z,24.40
2022-09-07T09:12:17.473Z,24.67
2022-09-07T09:14:52.449Z,24.65
2022-09-07T09:17:26.182Z,24.69
2022-09-07T09:19:57.432Z,24.79
2022-09-07T09:22:44.015Z,24.73
2022-09-07T09:25:17.562Z,24.90
2022-09-07T10:07:58.085Z,26.15
2022-09-07T10:13:25.110Z,26.55
2022-09-07T10:21:29.360Z,26.54
2022-09-07T10:23:58.673Z,26.66
2022-09-07T10:26:32.870Z,26.76
2022-09-07T10:29:15.106Z,26.53
2022-09-07T10:31:56.791Z,26.42
2022-09-07T10:34:28.123Z,26.55
2022-09-07T10:37:00.909Z,26.65
2022-09-07T10:39:30.515Z,26.87
2022-09-07T10:42:05.197Z,26.77
2022-09-07T10:44:41.702Z,27.07
2022-09-07T10:47:12.501Z,27.23
2022-09-07T10:50:22.073Z,27.24
2022-09-07T10:52:36.208Z,27.16
2022-09-07T10:55:12.082Z,27.24
2022-09-07T10:57:49.141Z,27.30
2022-09-07T11:00:16.901Z,27.10
2022-09-07T11:05:50.488Z,27.48
2022-09-07T11:14:14.850Z,27.91
2022-09-07T11:16:51.313Z,27.89
2022-09-07T11:19:37.234Z,28.30
2022-09-07T11:22:09.968Z,28.30
2022-09-07T11:24:47.222Z,28.43
2022-09-07T11:27:21.987Z,28.39
2022-09-07T11:29:52.578Z,28.33
2022-09-07T11:32:21.020Z,28.22
2022-09-07T11:34:49.433Z,28.49
2022-09-07T11:37:19.270Z,28.78
2022-09-07T11:39:54.295Z,28.38
2022-09-07T11:45:14.677Z,28.73
2022-09-07T11:47:44.752Z,28.64
2022-09-07T11:50:14.556Z,28.63
2022-09-07T11:52:42.769Z,28.82
2022-09-07T11:55:13.132Z,29.03
2022-09-07T11:57:44.577Z,29.15
2022-09-07T12:00:17.971Z,29.04
2022-09-07T12:03:00.601Z,29.49
2022-09-07T12:05:39.035Z,29.41
2022-09-07T12:08:16.204Z,29.40
2022-09-07T12:10:54.457Z,29.21
2022-09-07T12:13:35.910Z,28.91
2022-09-07T12:16:05.783Z,29.55
2022-09-07T12:18:49.558Z,29.56
2022-09-07T12:21:30.232Z,29.79
2022-09-07T12:23:57.055Z,29.67
2022-09-07T16:28:17.715Z,-146.61
2022-09-07T16:30:45.798Z,-146.61
2022-09-07T16:33:15.414Z,-146.61
2022-09-07T16:35:44.410Z,-146.61
2022-09-07T16:41:13.809Z,-146.61
2022-09-07T16:43:49.321Z,-146.61
2022-09-07T16:46:47.189Z,-146.61
2022-09-07T16:49:13.887Z,-146.61
2022-09-07T16:51:46.389Z,-146.61
2022-09-07T16:54:51.246Z,-146.61
2022-09-07T16:57:18.330Z,-146.61
2022-09-07T16:59:48.797Z,-146.61
2022-09-07T17:02:23.704Z,-146.61
2022-09-07T17:04:56.718Z,-146.61
2022-09-07T17:07:36.714Z,-146.61
2022-09-07T17:10:08.422Z,-146.61
2022-09-07T17:12:57.593Z,-146.61
2022-09-07T17:15:37.551Z,-146.61
2022-09-07T17:20:54.184Z,-146.61
2022-09-07T17:23:23.021Z,-146.61
2022-09-07T17:25:59.468Z,-146.61
2022-09-07T17:28:34.374Z,-146.61
2022-09-07T17:31:08.381Z,-146.61
2022-09-07T17:33:39.093Z,-146.61
2022-09-07T17:36:09.213Z,-146.61
2022-09-07T17:41:26.704Z,-146.61
2022-09-07T17:43:54.224Z,-146.61
2022-09-07T17:46:24.317Z,-146.61
2022-09-07T17:48:52.770Z,-146.61
2022-09-07T17:51:19.301Z,-146.61
2022-09-07T17:53:45.982Z,-146.61
2022-09-07T17:56:13.374Z,-146.61
2022-09-07T17:58:43.130Z,-146.61
2022-09-07T18:01:11.149Z,-146.61
2022-09-07T18:03:38.068Z,-146.61
2022-09-07T18:06:06.642Z,-146.61
2022-09-07T18:08:33.359Z,-146.61
2022-09-07T18:13:53.847Z,-146.61
2022-09-07T18:16:21.886Z,-146.61
2022-09-07T18:18:48.475Z,-146.61
2022-09-07T18:21:17.499Z,-146.61
2022-09-07T18:23:44.053Z,-146.61
2022-09-07T18:26:14.696Z,-146.61
2022-09-07T18:31:28.798Z,-146.61
2022-09-07T18:33:58.632Z,-146.61
2022-09-07T18:36:26.693Z,-146.61
2022-09-07T18:38:53.475Z,-146.61
2022-09-07T18:41:20.313Z,-146.61
2022-09-07T18:43:47.014Z,-146.61
2022-09-07T18:46:14.561Z,-146.61
2022-09-07T18:48:41.240Z,-146.61
2022-09-07T18:51:09.665Z,-146.61
2022-09-07T18:53:38.037Z,-146.61
2022-09-07T18:56:07.779Z,-146.61
2022-09-07T18:58:36.439Z,-146.61
2022-09-07T19:01:03.824Z,-146.61
2022-09-07T19:03:30.315Z,-146.61
2022-09-07T19:05:57.142Z,-146.61
2022-09-07T19:08:23.560Z,-146.61
2022-09-07T19:10:52.690Z,-146.61
2022-09-07T19:13:19.230Z,-146.61
2022-09-07T19:15:45.646Z,-146.61
2022-09-07T19:18:12.070Z,-146.61
2022-09-07T19:20:38.493Z,-146.61
2022-09-07T19:23:05.449Z,-146.61
2022-09-07T19:25:31.870Z,-146.61
2022-09-07T19:27:59.792Z,-146.61
2022-09-07T19:30:26.287Z,-146.61
2022-09-07T19:32:52.754Z,-146.61
2022-09-07T19:35:19.187Z,-146.61
2022-09-07T19:37:45.615Z,-146.61
2022-09-07T19:40:14.736Z,-146.61
2022-09-07T19:42:47.384Z,-146.61
2022-09-07T19:45:15.286Z,-146.61
2022-09-07T19:47:41.748Z,-146.61
2022-09-07T19:50:08.571Z,-146.61
2022-09-07T19:52:35.067Z,-146.61
2022-09-07T19:55:01.502Z,-146.61
2022-09-07T19:57:28.104Z,-146.61
2022-09-07T19:59:54.906Z,-146.61
2022-09-07T20:02:22.709Z,-146.61
2022-09-07T20:04:49.222Z,-146.61
2022-09-07T20:07:15.647Z,-146.61
2022-09-07T20:09:42.054Z,-146.61
2022-09-07T20:12:08.829Z,-146.61
2022-09-07T20:14:35.307Z,-146.61
2022-09-07T20:17:01.719Z,-146.61
2022-09-07T20:19:29.752Z,-146.61
2022-09-07T20:21:57.403Z,-146.61
2022-09-07T20:24:23.839Z,-146.61
2022-09-07T20:26:50.479Z,-146.61
2022-09-07T20:29:27.433Z,-146.61
2022-09-07T20:31:55.922Z,-146.61
2022-09-07T20:34:22.616Z,-146.61
2022-09-07T20:36:50.950Z,-146.61
2022-09-07T20:39:19.074Z,-146.61
2022-09-07T20:41:45.697Z,-146.61
2022-09-07T20:44:12.592Z,-146.61
2022-09-07T20:46:39.321Z,-146.61
2022-09-07T20:49:06.174Z,-146.61
2022-09-07T20:51:32.950Z,-146.61
2022-09-07T20:54:01.325Z,-146.61
2022-09-07T20:56:28.887Z,-146.61
2022-09-07T20:58:57.413Z,-146.61
2022-09-07T21:01:24.569Z,-146.61
2022-09-07T21:03:52.940Z,-146.61
2022-09-07T21:06:19.866Z,-146.61
2022-09-07T21:08:47.635Z,-146.61
2022-09-07T21:11:18.056Z,-146.61
2022-09-07T21:13:44.997Z,-146.61
2022-09-07T21:16:13.668Z,-146.61
2022-09-07T21:18:41.653Z,-146.61
2022-09-07T21:21:24.443Z,-146.61
2022-09-07T21:23:55.764Z,-146.61
2022-09-07T21:26:23.760Z,-146.61
2022-09-07T21:28:54.216Z,-146.61
2022-09-07T21:31:20.700Z,-146.61
2022-09-07T21:33:47.349Z,-146.61
2022-09-07T21:36:14.036Z,-146.61
2022-09-07T21:38:41.542Z,-146.61
2022-09-07T21:41:08.461Z,-146.61
2022-09-07T21:43:36.759Z,-146.61
2022-09-07T21:46:08.105Z,-146.61
2022-09-07T21:48:35.486Z,-146.61
2022-09-07T21:51:02.366Z,-146.61
2022-09-07T21:53:28.810Z,-146.61
2022-09-07T21:55:55.580Z,-146.61
2022-09-07T21:58:22.260Z,-146.61
2022-09-07T22:00:53.007Z,-146.61
2022-09-07T22:03:20.332Z,-146.61
2022-09-07T22:05:47.020Z,-146.61
2022-09-07T22:08:13.660Z,-146.61
2022-09-07T22:10:40.410Z,-146.61
2022-09-07T22:13:06.838Z,-146.61
2022-09-07T22:15:33.977Z,-146.61
2022-09-07T22:18:01.939Z,-146.61
2022-09-07T22:20:28.357Z,-146.61
2022-09-07T22:22:54.782Z,-146.61
2022-09-07T22:25:21.180Z,-146.61
2022-09-07T22:27:47.584Z,-146.61
2022-09-07T22:30:14.029Z,-146.61
2022-09-07T22:32:44.767Z,-146.61
2022-09-07T22:35:15.923Z,-146.61
2022-09-07T22:37:42.322Z,-146.61
2022-09-07T22:40:09.176Z,-146.61
2022-09-07T22:42:35.660Z,-146.61
2022-09-07T22:45:02.049Z,-146.61
2022-09-07T22:47:28.414Z,-146.61
2022-09-07T22:49:54.788Z,-146.61
2022-09-07T22:52:22.651Z,-146.61
2022-09-07T22:54:49.034Z,-146.61
2022-09-07T22:57:15.475Z,-146.61
2022-09-07T22:59:41.894Z,-146.61
2022-09-07T23:02:08.533Z,-146.61
2022-09-07T23:04:35.115Z,-146.61
2022-09-07T23:07:02.624Z,-146.61
2022-09-07T23:09:30.473Z,-146.61
2022-09-07T23:11:56.867Z,-146.61
2022-09-07T23:14:26.323Z,-146.61
2022-09-07T23:16:52.703Z,-146.61
2022-09-07T23:19:20.415Z,-146.61
2022-09-07T23:21:47.128Z,-146.61
2022-09-07T23:24:14.958Z,-146.61
2022-09-07T23:26:43.424Z,-146.61
2022-09-07T23:29:11.276Z,-146.61
2022-09-07T23:31:37.777Z,-146.61
2022-09-07T23:34:04.541Z,-146.61
2022-09-07T23:36:30.973Z,-146.61
2022-09-07T23:38:58.177Z,-146.61
2022-09-07T23:41:25.097Z,-146.61
2022-09-07T23:43:53.049Z,-146.61
2022-09-07T23:46:20.085Z,-146.61
2022-09-07T23:48:47.375Z,-146.61
2022-09-07T23:51:14.177Z,-146.61
2022-09-07T23:53:40.864Z,-146.61
2022-09-07T23:56:08.131Z,-146.61
2022-09-07T23:58:34.781Z,-146.61
